sensor_id;sensor_type;location;lat;lon;timestamp;pressure;altitude;pressure_sealevel;temperature;humidity
65013;BME280;51715;39.432;-77.518;2023-04-23T00:00:49;98988.21;;;18.52;47.51
65013;BME280;51715;39.432;-77.518;2023-04-23T00:03:18;98982.23;;;18.52;47.57
65013;BME280;51715;39.432;-77.518;2023-04-23T00:05:48;98974.71;;;18.75;47.37
65013;BME280;51715;39.432;-77.518;2023-04-23T00:08:19;98979.06;;;18.43;47.44
65013;BME280;51715;39.432;-77.518;2023-04-23T00:10:49;98982.30;;;18.72;47.36
65013;BME280;51715;39.432;-77.518;2023-04-23T00:13:17;98991.34;;;18.49;47.51
65013;BME280;51715;39.432;-77.518;2023-04-23T00:15:47;99002.49;;;18.78;47.40
65013;BME280;51715;39.432;-77.518;2023-04-23T00:18:16;99010.64;;;18.54;47.66
65013;BME280;51715;39.432;-77.518;2023-04-23T00:20:45;99014.99;;;18.57;47.49
65013;BME280;51715;39.432;-77.518;2023-04-23T00:23:14;99018.61;;;18.35;47.26
65013;BME280;51715;39.432;-77.518;2023-04-23T00:25:42;99014.22;;;18.48;47.37
65013;BME280;51715;39.432;-77.518;2023-04-23T00:28:10;99008.77;;;18.53;47.18
65013;BME280;51715;39.432;-77.518;2023-04-23T00:30:39;99021.83;;;18.37;46.90
65013;BME280;51715;39.432;-77.518;2023-04-23T00:33:08;99043.40;;;18.46;47.27
65013;BME280;51715;39.432;-77.518;2023-04-23T00:35:36;99051.34;;;18.55;47.39
65013;BME280;51715;39.432;-77.518;2023-04-23T00:38:05;99052.19;;;18.58;47.16
65013;BME280;51715;39.432;-77.518;2023-04-23T00:40:34;99055.03;;;18.24;47.05
65013;BME280;51715;39.432;-77.518;2023-04-23T00:43:03;99082.32;;;18.00;46.96
65013;BME280;51715;39.432;-77.518;2023-04-23T00:45:31;99111.49;;;17.78;47.41
65013;BME280;51715;39.432;-77.518;2023-04-23T00:47:59;99112.22;;;18.00;47.49
65013;BME280;51715;39.432;-77.518;2023-04-23T00:50:28;99105.91;;;18.03;47.17
65013;BME280;51715;39.432;-77.518;2023-04-23T00:52:56;99103.12;;;17.97;47.00
65013;BME280;51715;39.432;-77.518;2023-04-23T00:55:25;99106.46;;;17.88;47.20
65013;BME280;51715;39.432;-77.518;2023-04-23T00:57:53;99088.97;;;17.78;47.19
65013;BME280;51715;39.432;-77.518;2023-04-23T01:00:22;99087.55;;;17.62;47.32
65013;BME280;51715;39.432;-77.518;2023-04-23T01:02:52;99084.29;;;16.68;48.46
65013;BME280;51715;39.432;-77.518;2023-04-23T01:05:23;99079.85;;;17.48;48.25
65013;BME280;51715;39.432;-77.518;2023-04-23T01:07:53;99065.84;;;17.15;48.70
65013;BME280;51715;39.432;-77.518;2023-04-23T01:10:21;99074.00;;;17.16;48.79
65013;BME280;51715;39.432;-77.518;2023-04-23T01:12:50;99070.34;;;17.00;48.63
65013;BME280;51715;39.432;-77.518;2023-04-23T01:15:20;99068.49;;;17.18;48.40
65013;BME280;51715;39.432;-77.518;2023-04-23T01:17:49;99063.72;;;17.03;48.09
65013;BME280;51715;39.432;-77.518;2023-04-23T01:20:17;99068.40;;;17.32;47.75
65013;BME280;51715;39.432;-77.518;2023-04-23T01:22:46;99083.86;;;16.43;48.90
65013;BME280;51715;39.432;-77.518;2023-04-23T01:25:15;99097.79;;;16.60;47.31
65013;BME280;51715;39.432;-77.518;2023-04-23T01:27:43;99095.26;;;16.18;48.35
65013;BME280;51715;39.432;-77.518;2023-04-23T01:30:12;99082.19;;;16.86;47.96
65013;BME280;51715;39.432;-77.518;2023-04-23T01:32:41;99079.99;;;16.71;47.40
65013;BME280;51715;39.432;-77.518;2023-04-23T01:35:11;99081.35;;;16.68;47.19
65013;BME280;51715;39.432;-77.518;2023-04-23T01:37:39;99089.83;;;16.14;47.97
65013;BME280;51715;39.432;-77.518;2023-04-23T01:40:09;99090.49;;;15.83;48.83
65013;BME280;51715;39.432;-77.518;2023-04-23T01:42:37;99086.30;;;15.97;49.01
65013;BME280;51715;39.432;-77.518;2023-04-23T01:45:08;99085.62;;;16.04;48.94
65013;BME280;51715;39.432;-77.518;2023-04-23T01:47:36;99088.93;;;15.85;49.13
65013;BME280;51715;39.432;-77.518;2023-04-23T01:50:06;99087.89;;;15.86;49.57
65013;BME280;51715;39.432;-77.518;2023-04-23T01:52:36;99091.09;;;15.87;49.51
65013;BME280;51715;39.432;-77.518;2023-04-23T01:55:04;99099.00;;;16.05;49.10
65013;BME280;51715;39.432;-77.518;2023-04-23T01:57:33;99096.87;;;16.27;48.74
65013;BME280;51715;39.432;-77.518;2023-04-23T02:00:04;99102.25;;;16.28;48.91
65013;BME280;51715;39.432;-77.518;2023-04-23T02:02:33;99099.56;;;16.38;49.02
65013;BME280;51715;39.432;-77.518;2023-04-23T02:05:03;99093.37;;;16.04;48.76
65013;BME280;51715;39.432;-77.518;2023-04-23T02:07:33;99082.62;;;16.30;48.53
65013;BME280;51715;39.432;-77.518;2023-04-23T02:10:03;99085.01;;;16.48;48.08
65013;BME280;51715;39.432;-77.518;2023-04-23T02:12:33;99089.14;;;16.43;48.16
65013;BME280;51715;39.432;-77.518;2023-04-23T02:15:01;99097.52;;;16.44;47.99
65013;BME280;51715;39.432;-77.518;2023-04-23T02:17:30;99103.19;;;16.27;48.02
65013;BME280;51715;39.432;-77.518;2023-04-23T02:20:06;99105.29;;;16.44;47.89
65013;BME280;51715;39.432;-77.518;2023-04-23T02:22:36;99111.18;;;16.58;47.98
65013;BME280;51715;39.432;-77.518;2023-04-23T02:25:06;99113.03;;;16.13;48.53
65013;BME280;51715;39.432;-77.518;2023-04-23T02:27:34;99114.16;;;16.28;48.54
65013;BME280;51715;39.432;-77.518;2023-04-23T02:30:04;99114.16;;;16.04;48.85
65013;BME280;51715;39.432;-77.518;2023-04-23T02:32:32;99110.35;;;15.94;48.76
65013;BME280;51715;39.432;-77.518;2023-04-23T02:35:01;99109.71;;;15.71;49.08
65013;BME280;51715;39.432;-77.518;2023-04-23T02:37:32;99110.76;;;16.00;48.48
65013;BME280;51715;39.432;-77.518;2023-04-23T02:40:00;99110.15;;;16.10;48.11
65013;BME280;51715;39.432;-77.518;2023-04-23T02:42:29;99112.96;;;16.06;47.86
65013;BME280;51715;39.432;-77.518;2023-04-23T02:44:58;99112.58;;;16.38;47.61
65013;BME280;51715;39.432;-77.518;2023-04-23T02:47:27;99110.85;;;16.16;46.90
65013;BME280;51715;39.432;-77.518;2023-04-23T02:49:56;99117.49;;;16.21;46.88
65013;BME280;51715;39.432;-77.518;2023-04-23T02:52:25;99117.35;;;15.89;47.07
65013;BME280;51715;39.432;-77.518;2023-04-23T02:54:53;99116.45;;;15.40;47.86
65013;BME280;51715;39.432;-77.518;2023-04-23T02:57:22;99116.49;;;15.56;47.70
65013;BME280;51715;39.432;-77.518;2023-04-23T02:59:50;99117.65;;;15.75;47.52
65013;BME280;51715;39.432;-77.518;2023-04-23T03:02:20;99113.21;;;15.75;47.00
65013;BME280;51715;39.432;-77.518;2023-04-23T03:04:48;99114.12;;;15.80;46.94
65013;BME280;51715;39.432;-77.518;2023-04-23T03:07:16;99113.86;;;15.86;46.68
65013;BME280;51715;39.432;-77.518;2023-04-23T03:09:45;99110.38;;;15.72;46.51
65013;BME280;51715;39.432;-77.518;2023-04-23T03:12:13;99108.76;;;15.72;46.61
65013;BME280;51715;39.432;-77.518;2023-04-23T03:14:42;99107.26;;;15.50;46.33
65013;BME280;51715;39.432;-77.518;2023-04-23T03:17:10;99104.00;;;15.42;46.75
65013;BME280;51715;39.432;-77.518;2023-04-23T03:19:38;99107.98;;;15.37;46.63
65013;BME280;51715;39.432;-77.518;2023-04-23T03:22:06;99110.49;;;15.43;46.47
65013;BME280;51715;39.432;-77.518;2023-04-23T03:24:34;99114.65;;;15.42;46.87
65013;BME280;51715;39.432;-77.518;2023-04-23T03:27:04;99116.95;;;15.06;47.00
65013;BME280;51715;39.432;-77.518;2023-04-23T03:29:33;99114.92;;;15.04;46.99
65013;BME280;51715;39.432;-77.518;2023-04-23T03:32:01;99109.04;;;15.14;47.12
65013;BME280;51715;39.432;-77.518;2023-04-23T03:34:29;99104.11;;;15.22;47.09
65013;BME280;51715;39.432;-77.518;2023-04-23T03:36:58;99108.83;;;15.45;46.71
65013;BME280;51715;39.432;-77.518;2023-04-23T03:39:27;99113.51;;;15.19;46.52
65013;BME280;51715;39.432;-77.518;2023-04-23T03:41:55;99115.37;;;14.81;46.32
65013;BME280;51715;39.432;-77.518;2023-04-23T03:44:24;99115.56;;;15.06;46.44
65013;BME280;51715;39.432;-77.518;2023-04-23T03:46:53;99118.36;;;15.00;46.45
65013;BME280;51715;39.432;-77.518;2023-04-23T03:49:21;99119.26;;;14.94;46.45
65013;BME280;51715;39.432;-77.518;2023-04-23T03:51:50;99124.82;;;14.86;46.30
65013;BME280;51715;39.432;-77.518;2023-04-23T03:54:19;99129.62;;;14.95;46.24
65013;BME280;51715;39.432;-77.518;2023-04-23T03:56:47;99133.02;;;14.90;46.32
65013;BME280;51715;39.432;-77.518;2023-04-23T03:59:15;99136.24;;;14.77;46.74
65013;BME280;51715;39.432;-77.518;2023-04-23T04:04:01;99132.82;;;14.64;45.49
65013;BME280;51715;39.432;-77.518;2023-04-23T04:06:30;99136.91;;;14.62;45.20
65013;BME280;51715;39.432;-77.518;2023-04-23T04:08:58;99132.23;;;14.89;45.14
65013;BME280;51715;39.432;-77.518;2023-04-23T04:11:26;99127.74;;;15.15;45.11
65013;BME280;51715;39.432;-77.518;2023-04-23T04:13:55;99124.70;;;15.32;45.10
65013;BME280;51715;39.432;-77.518;2023-04-23T04:16:23;99121.47;;;15.06;45.90
65013;BME280;51715;39.432;-77.518;2023-04-23T04:18:51;99110.59;;;14.73;46.12
65013;BME280;51715;39.432;-77.518;2023-04-23T04:21:19;99104.09;;;14.66;46.35
65013;BME280;51715;39.432;-77.518;2023-04-23T04:23:47;99098.02;;;14.82;46.32
65013;BME280;51715;39.432;-77.518;2023-04-23T04:26:15;99091.18;;;14.84;46.38
65013;BME280;51715;39.432;-77.518;2023-04-23T04:28:44;99087.72;;;14.62;46.12
65013;BME280;51715;39.432;-77.518;2023-04-23T04:31:13;99081.72;;;14.68;45.95
65013;BME280;51715;39.432;-77.518;2023-04-23T04:33:41;99080.25;;;14.06;45.98
65013;BME280;51715;39.432;-77.518;2023-04-23T04:36:09;99088.21;;;14.14;46.08
65013;BME280;51715;39.432;-77.518;2023-04-23T04:38:38;99092.70;;;13.92;46.05
65013;BME280;51715;39.432;-77.518;2023-04-23T04:41:06;99094.59;;;13.65;46.09
65013;BME280;51715;39.432;-77.518;2023-04-23T04:43:34;99087.90;;;13.92;46.28
65013;BME280;51715;39.432;-77.518;2023-04-23T04:46:02;99085.51;;;13.48;46.37
65013;BME280;51715;39.432;-77.518;2023-04-23T04:48:30;99077.87;;;13.87;46.38
65013;BME280;51715;39.432;-77.518;2023-04-23T04:50:59;99075.86;;;13.83;46.41
65013;BME280;51715;39.432;-77.518;2023-04-23T04:53:26;99077.68;;;13.82;46.42
65013;BME280;51715;39.432;-77.518;2023-04-23T04:55:55;99080.05;;;13.65;46.53
65013;BME280;51715;39.432;-77.518;2023-04-23T04:58:23;99079.64;;;13.51;46.75
65013;BME280;51715;39.432;-77.518;2023-04-23T05:00:51;99083.13;;;13.49;46.51
65013;BME280;51715;39.432;-77.518;2023-04-23T05:03:19;99085.78;;;13.41;46.71
65013;BME280;51715;39.432;-77.518;2023-04-23T05:05:47;99088.78;;;13.40;46.73
65013;BME280;51715;39.432;-77.518;2023-04-23T05:08:15;99089.32;;;13.26;46.98
65013;BME280;51715;39.432;-77.518;2023-04-23T05:10:43;99081.35;;;13.09;46.93
65013;BME280;51715;39.432;-77.518;2023-04-23T05:13:11;99084.74;;;13.08;47.04
65013;BME280;51715;39.432;-77.518;2023-04-23T05:15:40;99088.18;;;13.06;47.21
65013;BME280;51715;39.432;-77.518;2023-04-23T05:18:09;99091.04;;;12.91;47.09
65013;BME280;51715;39.432;-77.518;2023-04-23T05:20:37;99091.01;;;12.98;47.22
65013;BME280;51715;39.432;-77.518;2023-04-23T05:23:06;99091.36;;;13.01;46.80
65013;BME280;51715;39.432;-77.518;2023-04-23T05:25:34;99091.56;;;13.19;46.56
65013;BME280;51715;39.432;-77.518;2023-04-23T05:28:02;99098.47;;;13.11;46.65
65013;BME280;51715;39.432;-77.518;2023-04-23T05:30:31;99099.50;;;12.84;46.79
65013;BME280;51715;39.432;-77.518;2023-04-23T05:33:00;99106.31;;;12.78;47.46
65013;BME280;51715;39.432;-77.518;2023-04-23T05:35:28;99113.86;;;12.67;47.49
65013;BME280;51715;39.432;-77.518;2023-04-23T05:37:57;99120.49;;;12.17;48.35
65013;BME280;51715;39.432;-77.518;2023-04-23T05:40:25;99123.37;;;11.91;48.67
65013;BME280;51715;39.432;-77.518;2023-04-23T05:42:53;99123.89;;;12.40;47.98
65013;BME280;51715;39.432;-77.518;2023-04-23T05:45:21;99124.24;;;12.25;47.60
65013;BME280;51715;39.432;-77.518;2023-04-23T05:47:50;99127.25;;;12.57;47.62
65013;BME280;51715;39.432;-77.518;2023-04-23T05:50:18;99130.30;;;12.35;47.50
65013;BME280;51715;39.432;-77.518;2023-04-23T05:52:46;99138.36;;;12.34;48.05
65013;BME280;51715;39.432;-77.518;2023-04-23T05:55:14;99143.16;;;12.59;47.62
65013;BME280;51715;39.432;-77.518;2023-04-23T05:57:42;99137.08;;;12.07;48.40
65013;BME280;51715;39.432;-77.518;2023-04-23T06:00:10;99132.38;;;11.42;49.80
65013;BME280;51715;39.432;-77.518;2023-04-23T06:02:39;99132.91;;;11.60;49.77
65013;BME280;51715;39.432;-77.518;2023-04-23T06:05:08;99134.30;;;11.65;49.01
65013;BME280;51715;39.432;-77.518;2023-04-23T06:07:36;99129.21;;;11.99;48.25
65013;BME280;51715;39.432;-77.518;2023-04-23T06:10:04;99128.91;;;12.27;47.83
65013;BME280;51715;39.432;-77.518;2023-04-23T06:12:32;99128.44;;;12.26;47.53
65013;BME280;51715;39.432;-77.518;2023-04-23T06:15:01;99125.93;;;12.67;47.24
65013;BME280;51715;39.432;-77.518;2023-04-23T06:17:29;99123.91;;;12.75;46.84
65013;BME280;51715;39.432;-77.518;2023-04-23T06:19:58;99120.67;;;12.89;46.72
65013;BME280;51715;39.432;-77.518;2023-04-23T06:22:26;99117.78;;;12.63;46.69
65013;BME280;51715;39.432;-77.518;2023-04-23T06:24:54;99112.60;;;12.63;46.37
65013;BME280;51715;39.432;-77.518;2023-04-23T06:27:23;99110.54;;;12.67;46.14
65013;BME280;51715;39.432;-77.518;2023-04-23T06:29:51;99114.74;;;12.29;46.30
65013;BME280;51715;39.432;-77.518;2023-04-23T06:32:20;99115.45;;;12.21;46.65
65013;BME280;51715;39.432;-77.518;2023-04-23T06:34:48;99117.70;;;12.49;46.72
65013;BME280;51715;39.432;-77.518;2023-04-23T06:37:16;99118.30;;;11.65;47.42
65013;BME280;51715;39.432;-77.518;2023-04-23T06:39:43;99122.33;;;12.01;46.96
65013;BME280;51715;39.432;-77.518;2023-04-23T06:42:11;99126.50;;;12.28;46.68
65013;BME280;51715;39.432;-77.518;2023-04-23T06:44:40;99127.77;;;11.91;46.80
65013;BME280;51715;39.432;-77.518;2023-04-23T06:47:08;99130.49;;;11.73;47.70
65013;BME280;51715;39.432;-77.518;2023-04-23T06:49:38;99130.83;;;11.51;47.70
65013;BME280;51715;39.432;-77.518;2023-04-23T06:52:06;99128.54;;;11.89;47.45
65013;BME280;51715;39.432;-77.518;2023-04-23T06:54:34;99127.32;;;11.85;47.24
65013;BME280;51715;39.432;-77.518;2023-04-23T06:57:02;99124.54;;;11.90;47.24
65013;BME280;51715;39.432;-77.518;2023-04-23T06:59:30;99122.31;;;11.77;47.76
65013;BME280;51715;39.432;-77.518;2023-04-23T07:01:58;99125.38;;;11.53;48.30
65013;BME280;51715;39.432;-77.518;2023-04-23T07:04:26;99123.41;;;11.28;48.60
65013;BME280;51715;39.432;-77.518;2023-04-23T07:06:55;99124.11;;;11.57;48.32
65013;BME280;51715;39.432;-77.518;2023-04-23T07:09:23;99121.79;;;11.66;47.72
65013;BME280;51715;39.432;-77.518;2023-04-23T07:11:51;99119.22;;;11.81;47.67
65013;BME280;51715;39.432;-77.518;2023-04-23T07:14:19;99124.48;;;11.72;47.59
65013;BME280;51715;39.432;-77.518;2023-04-23T07:16:47;99125.21;;;11.71;47.64
65013;BME280;51715;39.432;-77.518;2023-04-23T07:19:16;99121.36;;;11.89;47.30
65013;BME280;51715;39.432;-77.518;2023-04-23T07:21:44;99127.18;;;11.76;47.39
65013;BME280;51715;39.432;-77.518;2023-04-23T07:24:11;99132.58;;;11.91;47.36
65013;BME280;51715;39.432;-77.518;2023-04-23T07:26:40;99126.82;;;12.06;46.98
65013;BME280;51715;39.432;-77.518;2023-04-23T07:29:08;99127.70;;;12.06;47.05
65013;BME280;51715;39.432;-77.518;2023-04-23T07:31:38;99127.92;;;11.82;46.64
65013;BME280;51715;39.432;-77.518;2023-04-23T07:34:07;99125.10;;;11.85;46.57
65013;BME280;51715;39.432;-77.518;2023-04-23T07:36:36;99129.63;;;11.95;46.42
65013;BME280;51715;39.432;-77.518;2023-04-23T07:39:05;99140.38;;;11.95;46.74
65013;BME280;51715;39.432;-77.518;2023-04-23T07:41:33;99139.60;;;11.75;46.47
65013;BME280;51715;39.432;-77.518;2023-04-23T07:44:01;99138.81;;;11.94;46.18
65013;BME280;51715;39.432;-77.518;2023-04-23T07:46:29;99135.89;;;11.47;46.27
65013;BME280;51715;39.432;-77.518;2023-04-23T07:48:58;99140.98;;;11.68;46.03
65013;BME280;51715;39.432;-77.518;2023-04-23T07:51:25;99146.44;;;11.35;46.01
65013;BME280;51715;39.432;-77.518;2023-04-23T07:53:53;99143.56;;;11.09;47.17
65013;BME280;51715;39.432;-77.518;2023-04-23T07:56:21;99141.00;;;11.20;46.66
65013;BME280;51715;39.432;-77.518;2023-04-23T07:58:50;99147.99;;;11.47;46.62
65013;BME280;51715;39.432;-77.518;2023-04-23T08:01:18;99150.04;;;11.06;46.77
65013;BME280;51715;39.432;-77.518;2023-04-23T08:03:46;99150.22;;;11.49;46.65
65013;BME280;51715;39.432;-77.518;2023-04-23T08:06:14;99147.65;;;11.16;46.52
65013;BME280;51715;39.432;-77.518;2023-04-23T08:08:42;99149.32;;;11.41;46.36
65013;BME280;51715;39.432;-77.518;2023-04-23T08:11:10;99148.40;;;11.28;46.42
65013;BME280;51715;39.432;-77.518;2023-04-23T08:13:38;99146.11;;;11.32;46.69
65013;BME280;51715;39.432;-77.518;2023-04-23T08:16:07;99147.66;;;11.22;46.36
65013;BME280;51715;39.432;-77.518;2023-04-23T08:18:35;99147.82;;;11.37;46.40
65013;BME280;51715;39.432;-77.518;2023-04-23T08:21:03;99148.07;;;11.24;46.25
65013;BME280;51715;39.432;-77.518;2023-04-23T08:23:31;99150.13;;;11.20;46.49
65013;BME280;51715;39.432;-77.518;2023-04-23T08:25:59;99150.04;;;11.00;46.17
65013;BME280;51715;39.432;-77.518;2023-04-23T08:28:27;99151.83;;;11.41;45.73
65013;BME280;51715;39.432;-77.518;2023-04-23T08:30:55;99154.54;;;11.55;45.41
65013;BME280;51715;39.432;-77.518;2023-04-23T08:33:23;99154.39;;;11.26;45.92
65013;BME280;51715;39.432;-77.518;2023-04-23T08:35:51;99154.69;;;11.20;45.96
65013;BME280;51715;39.432;-77.518;2023-04-23T08:38:19;99158.11;;;11.04;46.30
65013;BME280;51715;39.432;-77.518;2023-04-23T08:40:50;99167.88;;;10.94;46.57
65013;BME280;51715;39.432;-77.518;2023-04-23T08:43:23;99166.57;;;10.95;46.26
65013;BME280;51715;39.432;-77.518;2023-04-23T08:45:55;99168.34;;;10.94;46.37
65013;BME280;51715;39.432;-77.518;2023-04-23T08:48:28;99175.35;;;10.47;46.88
65013;BME280;51715;39.432;-77.518;2023-04-23T08:50:56;99175.19;;;10.75;46.86
65013;BME280;51715;39.432;-77.518;2023-04-23T08:53:26;99176.19;;;10.92;46.58
65013;BME280;51715;39.432;-77.518;2023-04-23T08:55:55;99174.82;;;10.89;46.18
65013;BME280;51715;39.432;-77.518;2023-04-23T08:58:24;99174.85;;;10.73;45.92
65013;BME280;51715;39.432;-77.518;2023-04-23T09:00:54;99181.67;;;10.49;46.61
65013;BME280;51715;39.432;-77.518;2023-04-23T09:03:22;99181.88;;;10.61;46.68
65013;BME280;51715;39.432;-77.518;2023-04-23T09:05:52;99179.91;;;10.78;46.24
65013;BME280;51715;39.432;-77.518;2023-04-23T09:08:20;99178.39;;;10.77;46.04
65013;BME280;51715;39.432;-77.518;2023-04-23T09:10:51;99175.07;;;10.71;46.21
65013;BME280;51715;39.432;-77.518;2023-04-23T09:13:20;99179.73;;;10.44;46.45
65013;BME280;51715;39.432;-77.518;2023-04-23T09:15:48;99179.24;;;10.64;46.33
65013;BME280;51715;39.432;-77.518;2023-04-23T09:18:16;99181.32;;;10.62;46.36
65013;BME280;51715;39.432;-77.518;2023-04-23T09:20:46;99186.19;;;10.92;46.30
65013;BME280;51715;39.432;-77.518;2023-04-23T09:23:14;99192.32;;;10.42;46.47
65013;BME280;51715;39.432;-77.518;2023-04-23T09:25:42;99199.44;;;10.56;45.66
65013;BME280;51715;39.432;-77.518;2023-04-23T09:28:10;99196.92;;;10.50;46.24
65013;BME280;51715;39.432;-77.518;2023-04-23T09:30:42;99200.00;;;10.57;46.22
65013;BME280;51715;39.432;-77.518;2023-04-23T09:33:11;99207.53;;;10.66;46.30
65013;BME280;51715;39.432;-77.518;2023-04-23T09:35:40;99209.90;;;10.66;46.10
65013;BME280;51715;39.432;-77.518;2023-04-23T09:38:08;99214.07;;;10.72;46.04
65013;BME280;51715;39.432;-77.518;2023-04-23T09:40:37;99218.57;;;10.78;46.00
65013;BME280;51715;39.432;-77.518;2023-04-23T09:43:06;99219.76;;;10.80;45.91
65013;BME280;51715;39.432;-77.518;2023-04-23T09:45:36;99217.72;;;10.71;45.63
65013;BME280;51715;39.432;-77.518;2023-04-23T09:48:14;99216.29;;;11.02;45.52
65013;BME280;51715;39.432;-77.518;2023-04-23T09:50:43;99218.86;;;10.66;45.78
65013;BME280;51715;39.432;-77.518;2023-04-23T09:53:13;99221.26;;;10.50;45.95
65013;BME280;51715;39.432;-77.518;2023-04-23T09:55:44;99224.04;;;10.54;45.65
65013;BME280;51715;39.432;-77.518;2023-04-23T09:58:13;99223.29;;;10.39;45.56
65013;BME280;51715;39.432;-77.518;2023-04-23T10:00:42;99226.12;;;10.44;45.72
65013;BME280;51715;39.432;-77.518;2023-04-23T10:03:10;99226.37;;;10.48;45.71
65013;BME280;51715;39.432;-77.518;2023-04-23T10:05:40;99223.92;;;10.43;45.54
65013;BME280;51715;39.432;-77.518;2023-04-23T10:08:08;99228.62;;;10.46;45.65
65013;BME280;51715;39.432;-77.518;2023-04-23T10:10:37;99230.96;;;10.44;45.63
65013;BME280;51715;39.432;-77.518;2023-04-23T10:13:06;99231.13;;;10.40;45.30
65013;BME280;51715;39.432;-77.518;2023-04-23T10:15:35;99231.64;;;10.35;45.46
65013;BME280;51715;39.432;-77.518;2023-04-23T10:18:04;99232.15;;;10.67;45.29
65013;BME280;51715;39.432;-77.518;2023-04-23T10:20:35;99233.60;;;10.87;45.54
65013;BME280;51715;39.432;-77.518;2023-04-23T10:23:03;99244.13;;;10.64;45.32
65013;BME280;51715;39.432;-77.518;2023-04-23T10:25:32;99249.34;;;10.43;45.33
65013;BME280;51715;39.432;-77.518;2023-04-23T10:28:02;99251.73;;;10.35;45.28
65013;BME280;51715;39.432;-77.518;2023-04-23T10:30:31;99255.78;;;10.66;45.08
65013;BME280;51715;39.432;-77.518;2023-04-23T10:33:01;99257.73;;;10.28;45.12
65013;BME280;51715;39.432;-77.518;2023-04-23T10:35:30;99262.07;;;10.41;45.19
65013;BME280;51715;39.432;-77.518;2023-04-23T10:38:10;99273.14;;;10.19;45.44
65013;BME280;51715;39.432;-77.518;2023-04-23T10:40:40;99279.46;;;10.13;46.01
65013;BME280;51715;39.432;-77.518;2023-04-23T10:43:12;99287.20;;;9.96;46.48
65013;BME280;51715;39.432;-77.518;2023-04-23T10:45:41;99295.69;;;9.89;46.78
65013;BME280;51715;39.432;-77.518;2023-04-23T10:48:10;99299.34;;;9.90;46.55
65013;BME280;51715;39.432;-77.518;2023-04-23T10:50:38;99302.75;;;10.17;46.68
65013;BME280;51715;39.432;-77.518;2023-04-23T10:53:17;99307.63;;;10.03;46.84
65013;BME280;51715;39.432;-77.518;2023-04-23T10:55:47;99313.01;;;10.15;46.77
65013;BME280;51715;39.432;-77.518;2023-04-23T10:58:15;99316.07;;;10.41;46.66
65013;BME280;51715;39.432;-77.518;2023-04-23T11:00:44;99323.53;;;10.52;46.64
65013;BME280;51715;39.432;-77.518;2023-04-23T11:03:30;99333.15;;;10.50;46.54
65013;BME280;51715;39.432;-77.518;2023-04-23T11:06:00;99340.32;;;10.29;46.69
65013;BME280;51715;39.432;-77.518;2023-04-23T11:08:29;99350.80;;;10.10;46.69
65013;BME280;51715;39.432;-77.518;2023-04-23T11:10:58;99358.84;;;10.52;46.85
65013;BME280;51715;39.432;-77.518;2023-04-23T11:13:27;99361.14;;;10.14;47.23
65013;BME280;51715;39.432;-77.518;2023-04-23T11:16:22;99363.64;;;10.25;47.28
65013;BME280;51715;39.432;-77.518;2023-04-23T11:18:59;99361.14;;;10.44;47.43
65013;BME280;51715;39.432;-77.518;2023-04-23T11:22:01;99360.21;;;10.65;47.28
65013;BME280;51715;39.432;-77.518;2023-04-23T11:24:32;99360.43;;;10.84;47.38
65013;BME280;51715;39.432;-77.518;2023-04-23T11:27:00;99367.57;;;11.01;47.18
65013;BME280;51715;39.432;-77.518;2023-04-23T11:29:32;99371.82;;;11.16;47.21
65013;BME280;51715;39.432;-77.518;2023-04-23T11:32:00;99375.59;;;11.32;47.16
65013;BME280;51715;39.432;-77.518;2023-04-23T11:34:29;99378.26;;;11.47;47.06
65013;BME280;51715;39.432;-77.518;2023-04-23T11:36:58;99381.72;;;11.37;47.07
65013;BME280;51715;39.432;-77.518;2023-04-23T11:39:28;99379.76;;;11.36;47.45
65013;BME280;51715;39.432;-77.518;2023-04-23T11:41:56;99382.79;;;11.36;48.17
65013;BME280;51715;39.432;-77.518;2023-04-23T11:44:25;99382.88;;;11.48;48.40
65013;BME280;51715;39.432;-77.518;2023-04-23T11:46:53;99381.13;;;11.89;48.65
65013;BME280;51715;39.432;-77.518;2023-04-23T11:49:21;99382.46;;;12.45;48.02
65013;BME280;51715;39.432;-77.518;2023-04-23T11:51:49;99383.87;;;12.50;47.67
65013;BME280;51715;39.432;-77.518;2023-04-23T11:54:17;99383.45;;;12.51;47.31
65013;BME280;51715;39.432;-77.518;2023-04-23T11:56:46;99389.55;;;12.53;47.09
65013;BME280;51715;39.432;-77.518;2023-04-23T11:59:15;99393.32;;;12.85;46.96
65013;BME280;51715;39.432;-77.518;2023-04-23T12:01:45;99398.14;;;12.70;47.09
65013;BME280;51715;39.432;-77.518;2023-04-23T12:04:17;99399.70;;;12.96;46.83
65013;BME280;51715;39.432;-77.518;2023-04-23T12:06:46;99402.88;;;12.59;47.44
65013;BME280;51715;39.432;-77.518;2023-04-23T12:09:17;99405.22;;;12.91;47.85
65013;BME280;51715;39.432;-77.518;2023-04-23T12:11:46;99402.49;;;13.24;47.79
65013;BME280;51715;39.432;-77.518;2023-04-23T12:14:16;99398.58;;;13.04;47.61
65013;BME280;51715;39.432;-77.518;2023-04-23T12:16:45;99395.41;;;13.52;47.64
65013;BME280;51715;39.432;-77.518;2023-04-23T12:19:14;99392.90;;;13.81;47.69
65013;BME280;51715;39.432;-77.518;2023-04-23T12:21:49;99396.22;;;13.88;47.51
65013;BME280;51715;39.432;-77.518;2023-04-23T12:24:17;99400.59;;;14.11;47.34
65013;BME280;51715;39.432;-77.518;2023-04-23T12:26:45;99398.27;;;14.27;47.32
65013;BME280;51715;39.432;-77.518;2023-04-23T12:29:18;99396.60;;;14.31;46.86
65013;BME280;51715;39.432;-77.518;2023-04-23T12:31:47;99396.70;;;14.51;46.78
65013;BME280;51715;39.432;-77.518;2023-04-23T12:34:16;99392.90;;;14.41;46.81
65013;BME280;51715;39.432;-77.518;2023-04-23T12:36:46;99389.04;;;14.89;46.03
65013;BME280;51715;39.432;-77.518;2023-04-23T12:39:21;99387.28;;;14.76;45.29
65013;BME280;51715;39.432;-77.518;2023-04-23T12:41:52;99386.74;;;14.78;45.32
65013;BME280;51715;39.432;-77.518;2023-04-23T12:44:22;99388.43;;;14.78;46.26
65013;BME280;51715;39.432;-77.518;2023-04-23T12:46:54;99389.60;;;15.22;46.51
65013;BME280;51715;39.432;-77.518;2023-04-23T12:49:23;99390.38;;;15.07;46.35
65013;BME280;51715;39.432;-77.518;2023-04-23T12:51:51;99390.64;;;15.19;46.31